الصفحة الرئيسية
METAR-TAF:

مطار :

سكاكا, السعودية

مطار الجوف المحلي

دائرة عرض: 29-47N, خط طول: 040-06E, ارتفاع: 689 متر

مراقبة الطقس الحالي

تاريخ ووقت الإصدار 5ساعات و 1 دقيقة قبل الساعة 00:00UTC
ريح 6 عقدة من الغرب/الشمال الغربي
درجة الحرارة 29°درجة مئوية
الرطوبة 27%
ضغط 1009 hPa
الرؤية 10 كم أو أكثر
الغيوم لا تقل 1500 م ولا وجود لمزنة ركامية السحاب الأسود

METAR: OESK 300000Z 30006KT CAVOK 29/08 Q1009 NOSIG

زمن: 08:01 (05:01 UTC)

توقعات

تاريخ ووقت الإصدار 6ساعات و 1 دقيقة قبل الساعة 23:00UTC
التوقعات صالحة من30 الساعة 00 UTC إلى 01 الساعة 06 UTC
ريح 14 عقدة من الشمال/الشمال الغربي
الرؤية: 7000 متر
غيوم قليلة على ارتفاع 4000 قدم

TAF: OESK 292300Z 3000/0106 34014KT 7000 FEW040

METAR-TAF

أرصاد الطقس والتوقعات من أكثر من 4000 مطار (تقارير الطقس للمطار METAR والتنبؤ بالطقس بالمطارTAF).

المحطات المتاحة هي النقط الصفراء والحمراء على الخريطة.

حرك المؤشر فوق النقطة لمعرفة اسم المحطة.

ثم انقر لمعرفة أرصاد وتوقعات الطقس.

لتغيير الخارطة: اضغط على الأزرار الخضراء مع رمز الصليب الأسود للتكبير. على الزر الأخضر مع شرطة للتصغير، أو على الأسهم الخضراء للخرائط المجاورة.


METAR-TAF: